createdAt,value
2022-08-01T00:01:12.214Z,97574.81
2022-08-01T00:07:16.239Z,97579.00
2022-08-01T00:09:23.625Z,97574.72
2022-08-01T00:11:25.877Z,97570.47
2022-08-01T00:13:27.294Z,97567.06
2022-08-01T00:15:28.630Z,97562.78
2022-08-01T00:17:29.922Z,97565.44
2022-08-01T00:19:31.228Z,97560.44
2022-08-01T00:21:32.579Z,97559.66
2022-08-01T00:23:33.911Z,97558.06
2022-08-01T00:25:35.209Z,97559.84
2022-08-01T00:27:37.587Z,97551.41
2022-08-01T00:30:11.966Z,97558.25
2022-08-01T00:32:00.995Z,97557.41
2022-08-01T00:34:02.350Z,97543.00
2022-08-01T00:36:03.690Z,97547.22
2022-08-01T00:38:04.992Z,97547.22
2022-08-01T00:40:06.391Z,97536.94
2022-08-01T00:42:08.256Z,97528.28
2022-08-01T00:44:09.636Z,97527.22
2022-08-01T00:46:11.005Z,97534.25
2022-08-01T00:48:12.323Z,97524.88
2022-08-01T00:50:13.671Z,97534.22
2022-08-01T00:52:15.023Z,97531.66
2022-08-01T00:54:16.511Z,97526.56
2022-08-01T00:56:18.264Z,97523.16
2022-08-01T00:58:19.595Z,97524.00
2022-08-01T01:00:27.233Z,97526.59
2022-08-01T01:02:28.919Z,97527.44
2022-08-01T01:04:30.250Z,97530.00
2022-08-01T01:06:31.572Z,97531.72
2022-08-01T01:08:32.918Z,97531.78
2022-08-01T01:10:34.311Z,97535.97
2022-08-01T01:12:38.714Z,97534.34
2022-08-01T01:14:45.673Z,97529.22
2022-08-01T01:16:46.993Z,97530.03
2022-08-01T01:18:48.362Z,97526.69
2022-08-01T01:20:49.703Z,97535.84
2022-08-01T01:22:51.007Z,97534.72
2022-08-01T01:24:52.302Z,97535.38
2022-08-01T01:26:53.831Z,97534.53
2022-08-01T01:28:55.148Z,97535.38
2022-08-01T01:30:56.456Z,97533.66
2022-08-01T01:32:57.763Z,97533.66
2022-08-01T01:34:59.150Z,97541.38
2022-08-01T01:37:00.605Z,97524.38
2022-08-01T01:39:01.947Z,97524.38
2022-08-01T01:41:03.580Z,97531.09
2022-08-01T01:43:04.894Z,97516.63
2022-08-01T01:45:06.197Z,97522.59
2022-08-01T01:47:07.604Z,97522.47
2022-08-01T01:49:11.185Z,97523.25
2022-08-01T01:51:12.559Z,97519.84
2022-08-01T01:53:15.175Z,97519.78
2022-08-01T01:55:16.741Z,97522.41
2022-08-01T01:57:18.277Z,97519.84
2022-08-01T01:59:19.921Z,97524.16
2022-08-01T02:02:05.280Z,97522.41
2022-08-01T02:03:48.472Z,97373.03
2022-08-01T02:05:49.779Z,97525.81
2022-08-01T02:07:51.135Z,97531.88
2022-08-01T02:09:52.475Z,97520.00
2022-08-01T02:12:08.238Z,97525.91
2022-08-01T02:14:10.519Z,97530.22
2022-08-01T02:16:12.323Z,97531.88
2022-08-01T02:18:13.761Z,97528.44
2022-08-01T02:20:15.135Z,97531.00
2022-08-01T02:22:16.446Z,97530.22
2022-08-01T02:24:17.759Z,97527.72
2022-08-01T02:26:19.072Z,97533.69
2022-08-01T02:28:20.448Z,97537.19
2022-08-01T02:30:21.765Z,97538.06
2022-08-01T02:32:23.126Z,97530.28
2022-08-01T02:34:24.478Z,97535.22
2022-08-01T02:36:32.468Z,97537.69
2022-08-01T02:38:35.625Z,97537.78
2022-08-01T02:40:36.923Z,97533.50
2022-08-01T02:42:38.950Z,97534.38
2022-08-01T02:44:40.267Z,97535.22
2022-08-01T02:46:41.574Z,97533.56
2022-08-01T02:48:42.924Z,97532.72
2022-08-01T02:50:44.289Z,97539.56
2022-08-01T02:52:45.590Z,97541.28
2022-08-01T02:54:46.976Z,97531.03
2022-08-01T02:56:48.293Z,97536.16
2022-08-01T02:58:49.662Z,97537.91
2022-08-01T03:00:51.802Z,97527.66
2022-08-01T03:02:55.934Z,97536.22
2022-08-01T03:04:57.349Z,97531.94
2022-08-01T03:06:59.575Z,97535.34
2022-08-01T03:09:00.941Z,97532.72
2022-08-01T03:11:02.336Z,97531.94
2022-08-01T03:13:03.634Z,97531.94
2022-08-01T03:15:05.160Z,97532.00
2022-08-01T03:17:06.661Z,97532.00
2022-08-01T03:19:07.967Z,97541.28
2022-08-01T03:21:09.323Z,97541.28
2022-08-01T03:23:10.713Z,97548.09
2022-08-01T03:25:12.046Z,97551.47
2022-08-01T03:27:13.388Z,97548.97
2022-08-01T03:29:14.896Z,97546.41
2022-08-01T03:31:16.199Z,97556.63
2022-08-01T03:33:17.563Z,97549.88
2022-08-01T03:35:18.878Z,97555.00
2022-08-01T03:37:20.178Z,97555.88
2022-08-01T03:39:21.490Z,97547.31
2022-08-01T03:41:22.948Z,97549.91
2022-08-01T03:43:24.255Z,97541.63
2022-08-01T03:45:25.555Z,97543.38
2022-08-01T03:47:26.857Z,97546.13
2022-08-01T03:49:28.543Z,97552.19
2022-08-01T03:51:29.919Z,97548.00
2022-08-01T03:53:31.258Z,97549.78
2022-08-01T03:55:32.594Z,97548.94
2022-08-01T03:57:35.747Z,97536.94
2022-08-01T03:59:38.800Z,97542.81
2022-08-01T04:01:40.164Z,97544.34
2022-08-01T04:03:43.017Z,97545.13
2022-08-01T04:05:44.643Z,97551.97
2022-08-01T04:07:46.011Z,97557.94
2022-08-01T04:09:47.324Z,97555.41
2022-08-01T04:11:48.641Z,97406.00
2022-08-01T04:13:50.014Z,97557.13
2022-08-01T04:15:52.027Z,97564.81
2022-08-01T04:17:55.032Z,97555.47
2022-08-01T04:19:56.379Z,97557.09
2022-08-01T04:21:57.696Z,97557.09
2022-08-01T04:23:59.031Z,97555.41
2022-08-01T04:26:00.384Z,97551.97
2022-08-01T04:28:01.686Z,97558.75
2022-08-01T04:30:03.027Z,97564.78
2022-08-01T04:32:04.669Z,97560.50
2022-08-01T04:34:06.202Z,97563.81
2022-08-01T04:36:07.527Z,97562.09
2022-08-01T04:38:08.834Z,97565.53
2022-08-01T04:40:10.910Z,97556.19
2022-08-01T04:42:12.246Z,97556.91
2022-08-01T04:44:13.568Z,97562.03
2022-08-01T04:46:14.875Z,97562.94
2022-08-01T04:48:16.191Z,97566.38
2022-08-01T04:50:17.549Z,97568.09
2022-08-01T04:52:24.785Z,97565.44
2022-08-01T04:54:26.374Z,97567.16
2022-08-01T04:56:27.674Z,97566.31
2022-08-01T04:58:28.978Z,97572.25
2022-08-01T05:00:30.905Z,97563.75
2022-08-01T05:02:32.353Z,97559.53
2022-08-01T05:04:33.675Z,97567.22
2022-08-01T05:06:34.983Z,97557.88
2022-08-01T05:08:37.282Z,97557.09
2022-08-01T05:10:38.668Z,97556.25
2022-08-01T05:12:40.011Z,97557.09
2022-08-01T05:14:41.349Z,97558.81
2022-08-01T05:16:42.806Z,97561.38
2022-08-01T05:18:44.119Z,97563.06
2022-08-01T05:20:49.087Z,97558.81
2022-08-01T05:22:50.431Z,97552.84
2022-08-01T05:24:51.815Z,97561.38
2022-08-01T05:26:54.651Z,97555.41
2022-08-01T05:28:55.951Z,97560.53
2022-08-01T05:30:57.638Z,97554.53
2022-08-01T05:32:58.958Z,97561.38
2022-08-01T05:35:00.570Z,97550.25
2022-08-01T05:37:01.970Z,97555.38
2022-08-01T05:39:03.277Z,97550.97
2022-08-01T05:41:04.639Z,97562.00
2022-08-01T05:43:06.190Z,97557.75
2022-08-01T05:45:07.498Z,97552.53
2022-08-01T05:47:08.900Z,97561.88
2022-08-01T05:49:10.337Z,97383.16
2022-08-01T05:51:11.659Z,97560.97
2022-08-01T05:53:12.963Z,97560.00
2022-08-01T05:55:14.355Z,97563.44
2022-08-01T05:57:15.735Z,97562.56
2022-08-01T05:59:17.041Z,97566.00
2022-08-01T06:01:18.447Z,97566.06
2022-08-01T06:03:19.752Z,97567.78
2022-08-01T06:05:21.075Z,97570.34
2022-08-01T06:07:22.689Z,97570.25
2022-08-01T06:09:23.991Z,97570.22
2022-08-01T06:11:25.390Z,97570.84
2022-08-01T06:13:26.686Z,97566.53
2022-08-01T06:15:28.006Z,97575.00
2022-08-01T06:17:29.354Z,97581.00
2022-08-01T06:19:30.675Z,97574.16
2022-08-01T06:21:31.972Z,97577.50
2022-08-01T06:23:33.287Z,97587.25
2022-08-01T06:25:34.635Z,97581.53
2022-08-01T06:27:36.322Z,97585.34
2022-08-01T06:29:37.643Z,97586.03
2022-08-01T06:31:38.963Z,97581.38
2022-08-01T06:33:40.285Z,97586.81
2022-08-01T06:35:41.678Z,97581.72
2022-08-01T06:37:42.993Z,97583.34
2022-08-01T06:39:44.315Z,97585.88
2022-08-01T06:41:47.942Z,97586.84
2022-08-01T06:43:49.542Z,97593.09
2022-08-01T06:45:51.015Z,97600.91
2022-08-01T06:47:52.488Z,97599.13
2022-08-01T06:49:53.802Z,97598.19
2022-08-01T06:51:55.143Z,97596.59
2022-08-01T06:53:56.495Z,97601.75
2022-08-01T06:55:57.824Z,97592.22
2022-08-01T06:57:59.175Z,97600.72
2022-08-01T07:00:00.480Z,97602.41
2022-08-01T07:02:05.053Z,97604.84
2022-08-01T07:04:06.633Z,97609.28
2022-08-01T07:06:08.020Z,97605.19
2022-08-01T07:08:09.335Z,97605.00
2022-08-01T07:10:10.744Z,97611.72
2022-08-01T07:12:12.378Z,97613.34
2022-08-01T07:14:13.707Z,97610.88
2022-08-01T07:16:15.074Z,97611.59
2022-08-01T07:18:16.420Z,97605.66
2022-08-01T07:20:17.730Z,97613.25
2022-08-01T07:22:23.495Z,97606.19
2022-08-01T07:24:25.016Z,97608.56
2022-08-01T07:26:28.500Z,97603.25
2022-08-01T07:28:29.844Z,97608.00
2022-08-01T07:30:31.179Z,97607.75
2022-08-01T07:32:32.632Z,97609.22
2022-08-01T07:34:33.946Z,97612.16
2022-08-01T07:36:35.256Z,97601.69
2022-08-01T07:38:36.611Z,97606.81
2022-08-01T07:40:37.932Z,97610.59
2022-08-01T07:42:39.282Z,97611.72
2022-08-01T07:44:40.599Z,97613.47
2022-08-01T07:46:41.907Z,97610.97
2022-08-01T07:48:43.279Z,97613.72
2022-08-01T07:50:44.651Z,97609.50
2022-08-01T07:52:46.083Z,97606.31
2022-08-01T07:54:52.124Z,97614.03
2022-08-01T07:56:53.671Z,97613.19
2022-08-01T07:58:55.013Z,97618.34
2022-08-01T08:00:56.360Z,97621.84
2022-08-01T08:02:59.833Z,97618.44
2022-08-01T08:05:01.284Z,97619.31
2022-08-01T08:07:02.628Z,97621.84
2022-08-01T08:09:04.050Z,97615.97
2022-08-01T08:11:05.358Z,97617.69
2022-08-01T08:13:06.675Z,97613.34
2022-08-01T08:15:08.114Z,97623.66
2022-08-01T08:17:09.474Z,97623.63
2022-08-01T08:19:10.778Z,97619.41
2022-08-01T08:21:12.520Z,97488.09
2022-08-01T08:23:46.229Z,97615.09
2022-08-01T08:25:47.530Z,97623.38
2022-08-01T08:27:48.868Z,97622.34
2022-08-01T08:29:50.193Z,97625.47
2022-08-01T08:32:03.775Z,97621.81
2022-08-01T08:34:05.482Z,97624.19
2022-08-01T08:36:07.018Z,97619.06
2022-08-01T08:38:08.683Z,97631.13
2022-08-01T08:40:12.644Z,97621.19
2022-08-01T08:42:14.098Z,97477.75
2022-08-01T08:44:15.833Z,97631.06
2022-08-01T08:46:17.392Z,97631.97
2022-08-01T08:48:18.689Z,97631.13
2022-08-01T08:50:28.766Z,97626.03
2022-08-01T08:52:30.083Z,97622.44
2022-08-01T08:54:31.884Z,97632.25
2022-08-01T08:56:35.275Z,97630.28
2022-08-01T08:58:38.604Z,97631.81
2022-08-01T09:00:39.962Z,97643.09
2022-08-01T09:02:41.262Z,97643.13
2022-08-01T09:04:42.655Z,97643.28
2022-08-01T09:06:44.466Z,97644.38
2022-08-01T09:08:45.879Z,97647.00
2022-08-01T09:10:47.268Z,97655.63
2022-08-01T09:12:48.635Z,97653.75
2022-08-01T09:14:51.314Z,97651.13
2022-08-01T09:16:52.891Z,97648.53
2022-08-01T09:18:54.208Z,97651.22
2022-08-01T09:20:55.518Z,97656.31
2022-08-01T09:22:56.862Z,97652.16
2022-08-01T09:24:58.179Z,97650.47
2022-08-01T09:26:59.574Z,97503.88
2022-08-01T09:29:01.311Z,97653.84
2022-08-01T09:31:02.721Z,97659.06
2022-08-01T09:33:11.256Z,97662.56
2022-08-01T09:35:19.311Z,97657.34
2022-08-01T09:37:24.179Z,97658.44
2022-08-01T09:39:25.702Z,97661.59
2022-08-01T09:41:27.004Z,97667.69
2022-08-01T09:43:39.368Z,97665.06
2022-08-01T09:45:41.657Z,97666.13
2022-08-01T09:47:45.322Z,97658.44
2022-08-01T09:49:50.385Z,97662.84
2022-08-01T09:51:59.411Z,97662.97
2022-08-01T09:54:02.205Z,97663.00
2022-08-01T09:56:04.079Z,97668.53
2022-08-01T09:58:06.055Z,97656.69
2022-08-01T10:00:08.057Z,97667.22
2022-08-01T10:02:09.575Z,97672.22
2022-08-01T10:04:11.546Z,97667.94
2022-08-01T10:06:13.088Z,97669.94
2022-08-01T10:08:14.471Z,97664.72
2022-08-01T10:10:29.043Z,97668.00
2022-08-01T10:12:33.103Z,97662.78
2022-08-01T10:14:34.448Z,97674.63
2022-08-01T10:16:36.018Z,97675.53
2022-08-01T10:18:38.132Z,97678.72
2022-08-01T10:20:39.718Z,97675.50
2022-08-01T10:22:41.864Z,97679.25
2022-08-01T10:24:43.222Z,97677.03
2022-08-01T10:26:44.656Z,97675.25
2022-08-01T10:28:47.159Z,97666.78
2022-08-01T10:30:49.331Z,97670.25
2022-08-01T10:32:51.345Z,97666.13
2022-08-01T10:34:53.025Z,97670.38
2022-08-01T10:36:54.351Z,97669.47
2022-08-01T10:38:56.367Z,97663.19
2022-08-01T10:40:57.699Z,97663.44
2022-08-01T10:42:59.075Z,97670.19
2022-08-01T10:45:00.579Z,97661.34
2022-08-01T10:47:01.890Z,97661.84
2022-08-01T10:49:03.641Z,97661.41
2022-08-01T10:51:04.999Z,97659.47
2022-08-01T10:53:23.902Z,97657.03
2022-08-01T10:55:32.679Z,97656.78
2022-08-01T10:57:33.979Z,97659.22
2022-08-01T10:59:58.905Z,97657.22
2022-08-01T11:02:02.507Z,97658.75
2022-08-01T11:04:04.161Z,97659.31
2022-08-01T11:06:05.638Z,97664.84
2022-08-01T11:08:09.684Z,97658.66
2022-08-01T11:10:14.993Z,97664.81
2022-08-01T11:12:24.832Z,97659.59
2022-08-01T11:14:40.610Z,97663.44
2022-08-01T11:16:47.822Z,97666.25
2022-08-01T11:18:51.035Z,97665.59
2022-08-01T11:20:52.348Z,97660.56
2022-08-01T11:23:13.709Z,97669.94
2022-08-01T11:25:16.306Z,97672.50
2022-08-01T11:27:20.533Z,97661.41
2022-08-01T11:29:24.760Z,97667.50
2022-08-01T11:31:26.088Z,97663.31
2022-08-01T11:33:27.711Z,97661.66
2022-08-01T11:35:30.918Z,97665.22
2022-08-01T11:37:32.219Z,97661.03
2022-08-01T11:39:38.704Z,97662.81
2022-08-01T11:41:40.603Z,97667.09
2022-08-01T11:43:41.908Z,97661.13
2022-08-01T11:45:43.334Z,97675.66
2022-08-01T11:47:45.426Z,97663.75
2022-08-01T11:49:49.329Z,97668.72
2022-08-01T11:51:51.030Z,97658.28
2022-08-01T11:53:52.340Z,97653.91
2022-08-01T11:55:54.918Z,97658.09
2022-08-01T11:57:56.228Z,97652.84
2022-08-01T12:00:03.954Z,97657.03
2022-08-01T12:02:05.771Z,97660.47
2022-08-01T12:04:07.146Z,97650.41
2022-08-01T12:06:08.520Z,97649.66
2022-08-01T12:08:09.855Z,97659.13
2022-08-01T12:10:11.217Z,97659.22
2022-08-01T12:12:12.687Z,97649.84
2022-08-01T12:14:13.993Z,97647.34
2022-08-01T12:16:15.495Z,97651.66
2022-08-01T12:18:16.823Z,97654.34
2022-08-01T12:20:18.128Z,97659.53
2022-08-01T12:22:19.448Z,97656.19
2022-08-01T12:24:20.815Z,97663.09
2022-08-01T12:26:25.815Z,97652.97
2022-08-01T12:28:33.471Z,97667.53
2022-08-01T12:30:38.687Z,97664.19
2022-08-01T12:32:40.058Z,97665.09
2022-08-01T12:34:41.356Z,97669.38
2022-08-01T12:36:42.686Z,97668.56
2022-08-01T12:38:43.990Z,97681.44
2022-08-01T12:40:45.941Z,97677.25
2022-08-01T12:42:47.423Z,97678.22
2022-08-01T12:44:48.768Z,97682.56
2022-08-01T12:46:50.071Z,97675.38
2022-08-01T12:48:51.418Z,97679.53
2022-08-01T12:50:53.509Z,97675.06
2022-08-01T12:52:55.079Z,97680.09
2022-08-01T12:54:56.436Z,97678.28
2022-08-01T12:56:58.187Z,97675.63
2022-08-01T12:59:00.199Z,97675.31
2022-08-01T13:01:01.554Z,97685.28
2022-08-01T13:03:02.918Z,97679.03
2022-08-01T13:05:04.267Z,97693.47
2022-08-01T13:07:05.686Z,97696.03
2022-08-01T13:09:07.256Z,97696.03
2022-08-01T13:11:14.927Z,97690.13
2022-08-01T13:13:22.338Z,97695.38
2022-08-01T13:15:31.969Z,97698.03
2022-08-01T13:17:33.499Z,97694.69
2022-08-01T13:19:34.796Z,97698.09
2022-08-01T13:21:53.652Z,97695.59
2022-08-01T13:24:02.956Z,97699.03
2022-08-01T13:26:05.398Z,97697.09
2022-08-01T13:28:06.760Z,97690.03
2022-08-01T13:30:08.067Z,97691.13
2022-08-01T13:32:10.130Z,97697.94
2022-08-01T13:34:11.503Z,97705.94
2022-08-01T13:36:12.821Z,97698.63
2022-08-01T13:38:15.336Z,97689.81
2022-08-01T13:40:16.638Z,97685.38
2022-08-01T13:42:19.515Z,97687.84
2022-08-01T13:44:20.966Z,97687.78
2022-08-01T13:46:22.280Z,97689.00
2022-08-01T13:48:23.594Z,97681.09
2022-08-01T13:50:25.320Z,97684.78
2022-08-01T13:52:26.666Z,97680.63
2022-08-01T13:54:27.978Z,97677.84
2022-08-01T13:56:29.476Z,97687.72
2022-08-01T13:58:30.815Z,97680.28
2022-08-01T14:00:32.115Z,97681.19
2022-08-01T14:02:33.659Z,97671.63
2022-08-01T14:04:35.047Z,97681.06
2022-08-01T14:06:36.356Z,97682.91
2022-08-01T14:08:37.691Z,97691.31
2022-08-01T14:10:39.014Z,97688.88
2022-08-01T14:12:40.996Z,97678.72
2022-08-01T14:14:47.274Z,97687.41
2022-08-01T14:16:48.795Z,97683.19
2022-08-01T14:18:50.099Z,97689.97
2022-08-01T14:20:51.583Z,97686.56
2022-08-01T14:22:56.264Z,97688.19
2022-08-01T14:25:01.518Z,97696.25
2022-08-01T14:27:04.806Z,97696.00
2022-08-01T14:29:06.132Z,97695.50
2022-08-01T14:31:07.540Z,97698.25
2022-08-01T14:33:08.876Z,97698.38
2022-08-01T14:35:10.273Z,97707.78
2022-08-01T14:37:11.666Z,97704.34
2022-08-01T14:39:14.946Z,97708.69
2022-08-01T14:41:16.458Z,97706.13
2022-08-01T14:43:26.207Z,97702.84
2022-08-01T14:45:29.659Z,97718.31
2022-08-01T14:47:31.078Z,97717.56
2022-08-01T14:49:32.479Z,97722.69
2022-08-01T14:51:35.421Z,97725.25
2022-08-01T14:53:37.732Z,97719.22
2022-08-01T14:55:42.121Z,97722.72
2022-08-01T14:57:43.630Z,97721.91
2022-08-01T14:59:44.988Z,97721.91
2022-08-01T15:01:46.303Z,97715.19
2022-08-01T15:03:48.967Z,97721.22
2022-08-01T15:05:50.316Z,97714.97
2022-08-01T15:07:52.573Z,97718.56
2022-08-01T15:24:30.007Z,97742.78
2022-08-01T15:26:31.328Z,97734.84
2022-08-01T15:28:32.710Z,97735.38
2022-08-01T15:30:35.637Z,97742.03
2022-08-01T15:32:37.321Z,97742.88
2022-08-01T15:34:38.661Z,97740.38
2022-08-01T15:36:41.998Z,97732.25
2022-08-01T15:38:44.999Z,97737.28
2022-08-01T15:40:46.367Z,97742.75
2022-08-01T15:42:47.742Z,97745.38
2022-08-01T15:44:49.768Z,97741.47
2022-08-01T15:46:51.098Z,97744.56
2022-08-01T15:48:52.535Z,97744.66
2022-08-01T15:50:53.970Z,97746.06
2022-08-01T15:52:55.355Z,97751.44
2022-08-01T15:54:56.651Z,97751.34
2022-08-01T15:56:58.113Z,97748.78
2022-08-01T15:58:59.439Z,97747.63
2022-08-01T16:01:00.759Z,97740.81
2022-08-01T16:03:02.059Z,97747.03
2022-08-01T16:05:03.476Z,97757.59
2022-08-01T16:07:04.780Z,97745.56
2022-08-01T16:09:06.138Z,97747.22
2022-08-01T16:11:07.486Z,97742.56
2022-08-01T16:13:08.889Z,97751.09
2022-08-01T16:15:10.207Z,97733.25
2022-08-01T16:17:11.558Z,97736.94
2022-08-01T16:19:18.999Z,97742.34
2022-08-01T16:21:21.027Z,97745.56
2022-08-01T16:23:22.335Z,97746.06
2022-08-01T16:25:23.642Z,97741.16
2022-08-01T16:27:27.260Z,97743.13
2022-08-01T16:29:30.851Z,97749.22
2022-08-01T16:32:02.344Z,97745.03
2022-08-01T16:33:57.115Z,97738.44
2022-08-01T16:36:03.740Z,97743.44
2022-08-01T16:38:05.364Z,97745.84
2022-08-01T16:40:06.672Z,97752.19
2022-08-01T16:42:08.487Z,97752.91
2022-08-01T16:44:09.951Z,97745.66
2022-08-01T16:46:11.320Z,97746.28
2022-08-01T16:48:12.882Z,97749.50
2022-08-01T16:50:14.194Z,97754.53
2022-08-01T16:52:18.327Z,97748.88
2022-08-01T16:54:24.956Z,97747.91
2022-08-01T16:56:27.555Z,97754.19
2022-08-01T16:58:28.878Z,97757.31
2022-08-01T17:00:30.228Z,97754.00
2022-08-01T17:02:31.750Z,97752.44
2022-08-01T17:04:33.079Z,97753.44
2022-08-01T17:06:34.460Z,97601.28
2022-08-01T17:08:35.924Z,97751.88
2022-08-01T17:10:48.587Z,97751.97
2022-08-01T17:12:49.899Z,97758.88
2022-08-01T17:14:51.247Z,97752.09
2022-08-01T17:16:52.586Z,97758.94
2022-08-01T17:18:53.945Z,97761.59
2022-08-01T17:20:55.259Z,97769.28
2022-08-01T17:22:56.664Z,97765.94
2022-08-01T17:24:57.966Z,97757.53
2022-08-01T17:26:59.326Z,97763.53
2022-08-01T17:29:00.731Z,97762.13
2022-08-01T17:31:02.102Z,97771.81
2022-08-01T17:33:03.603Z,97775.25
2022-08-01T17:35:05.122Z,97770.50
2022-08-01T17:37:06.716Z,97766.88
2022-08-01T17:39:09.391Z,97762.34
2022-08-01T17:41:10.789Z,97758.94
2022-08-01T17:43:12.099Z,97772.84
2022-08-01T17:45:28.321Z,97774.03
2022-08-01T17:47:49.779Z,97770.59
2022-08-01T17:49:55.059Z,97771.53
2022-08-01T17:51:56.604Z,97770.63
2022-08-01T17:53:58.046Z,97779.81
2022-08-01T17:56:00.758Z,97784.25
2022-08-01T17:58:05.206Z,97785.63
2022-08-01T18:00:06.535Z,97773.19
2022-08-01T18:02:07.904Z,97785.09
2022-08-01T18:04:12.338Z,97793.38
2022-08-01T18:06:14.364Z,97786.94
2022-08-01T18:08:17.067Z,97789.25
2022-08-01T18:10:20.010Z,97792.06
2022-08-01T18:12:21.651Z,97790.06
2022-08-01T18:14:32.578Z,97796.53
2022-08-01T18:16:42.314Z,97796.59
2022-08-01T18:18:43.948Z,97799.06
2022-08-01T18:20:45.263Z,97794.00
2022-08-01T18:22:46.649Z,97794.00
2022-08-01T18:24:47.987Z,97798.97
2022-08-01T18:26:49.372Z,97795.78
2022-08-01T18:28:55.203Z,97797.16
2022-08-01T18:31:03.298Z,97806.84
2022-08-01T18:33:04.602Z,97806.19
2022-08-01T18:35:10.819Z,97808.03
2022-08-01T18:37:16.757Z,97660.97
2022-08-01T18:39:20.806Z,97809.16
2022-08-01T18:41:22.797Z,97808.41
2022-08-01T18:43:24.179Z,97813.56
2022-08-01T18:45:25.487Z,97813.56
2022-08-01T18:47:26.883Z,97817.91
2022-08-01T18:49:28.251Z,97809.41
2022-08-01T18:51:29.583Z,97812.88
2022-08-01T18:53:30.915Z,97816.31
2022-08-01T18:55:32.214Z,97816.38
2022-08-01T18:57:33.576Z,97814.63
2022-08-01T18:59:34.887Z,97824.94
2022-08-01T19:01:40.397Z,97828.41
2022-08-01T19:03:42.863Z,97830.19
2022-08-01T19:05:44.295Z,97841.34
2022-08-01T19:08:06.120Z,97853.47
2022-08-01T19:10:07.071Z,97846.03
2022-08-01T19:12:08.405Z,97855.38
2022-08-01T19:14:09.764Z,97854.91
2022-08-01T19:16:11.120Z,97862.81
2022-08-01T19:20:42.523Z,97865.78
2022-08-01T19:22:43.838Z,97872.38
2022-08-01T19:24:45.154Z,97866.94
2022-08-01T19:26:46.532Z,97870.50
2022-08-01T19:28:47.960Z,97867.78
2022-08-01T19:30:53.533Z,97862.81
2022-08-01T19:32:55.067Z,97866.28
2022-08-01T19:34:57.254Z,97873.50
2022-08-01T19:36:58.740Z,97874.06
2022-08-01T19:39:00.114Z,97883.75
2022-08-01T19:41:03.403Z,97881.94
2022-08-01T19:43:04.716Z,97881.34
2022-08-01T19:45:06.103Z,97877.50
2022-08-01T19:47:07.765Z,97889.13
2022-08-01T19:49:09.258Z,97887.53
2022-08-01T19:51:10.738Z,97893.53
2022-08-01T19:53:12.462Z,97897.53
2022-08-01T19:55:13.796Z,97897.19
2022-08-01T19:57:15.155Z,97897.31
2022-08-01T19:59:16.466Z,97894.59
2022-08-01T20:01:17.777Z,97898.75
2022-08-01T20:03:19.426Z,97902.53
2022-08-01T20:05:20.782Z,97908.88
2022-08-01T20:07:22.092Z,97904.69
2022-08-01T20:09:23.462Z,97909.59
2022-08-01T20:11:24.819Z,97903.28
2022-08-01T20:13:26.118Z,97904.91
2022-08-01T21:12:25.223Z,97942.47
2022-08-01T21:14:26.523Z,97931.22
2022-08-01T21:16:30.279Z,97939.34
2022-08-01T21:18:31.830Z,97946.00
2022-08-01T21:20:33.183Z,97938.81
2022-08-01T21:22:34.540Z,97793.31
2022-08-01T21:24:35.843Z,97936.56
2022-08-01T21:26:37.155Z,97948.13
2022-08-01T21:28:38.608Z,97947.53
2022-08-01T21:30:39.923Z,97950.19
2022-08-01T21:32:42.373Z,97951.31
2022-08-01T21:34:43.715Z,97957.28
2022-08-01T21:36:45.085Z,97963.78
2022-08-01T21:38:46.391Z,97956.63
2022-08-01T21:40:47.700Z,97957.03
2022-08-01T21:42:49.035Z,97967.34
2022-08-01T21:44:50.375Z,97965.94
2022-08-01T21:46:51.696Z,97961.78
2022-08-01T21:48:53.039Z,97966.09
2022-08-01T21:50:54.379Z,97958.59
2022-08-01T21:52:55.698Z,97968.78
2022-08-01T21:54:58.258Z,97966.63
2022-08-01T21:57:01.337Z,97960.38
2022-08-01T21:59:02.751Z,97968.75
2022-08-01T22:01:05.270Z,97964.38
2022-08-01T22:03:06.646Z,97961.03
2022-08-01T22:05:07.999Z,97968.28
2022-08-01T22:07:09.798Z,97975.81
2022-08-01T22:09:11.104Z,97973.53
2022-08-01T22:11:12.442Z,97966.09
2022-08-01T22:13:13.748Z,97971.13
2022-08-01T22:15:15.090Z,97968.16
2022-08-01T22:17:16.451Z,97972.09
2022-08-01T22:19:44.150Z,97978.81
2022-08-01T22:21:39.599Z,97979.88
2022-08-01T22:23:40.900Z,97973.13
2022-08-01T22:25:42.190Z,97981.84
2022-08-01T22:28:05.765Z,97969.16
2022-08-01T22:30:05.335Z,97973.59
2022-08-01T22:32:06.656Z,97970.91
2022-08-01T22:34:07.962Z,97973.59
2022-08-01T22:36:09.355Z,97981.31
2022-08-01T22:38:10.689Z,97974.56
2022-08-01T22:40:11.990Z,97964.38
2022-08-01T22:42:13.523Z,97972.06
2022-08-01T22:44:15.016Z,97992.66
2022-08-01T22:46:17.411Z,97971.50
2022-08-01T22:48:18.902Z,97965.56
2022-08-01T22:50:34.415Z,97972.34
2022-08-01T22:52:39.564Z,97969.81
2022-08-01T22:54:40.923Z,97979.28
2022-08-01T22:56:42.222Z,97974.03
2022-08-01T22:58:43.535Z,97975.81
2022-08-01T23:00:44.835Z,97980.91
2022-08-01T23:02:46.200Z,97975.84
2022-08-01T23:04:47.546Z,97975.94
2022-08-01T23:06:48.889Z,97981.94
2022-08-01T23:08:50.271Z,97986.34
2022-08-01T23:10:51.891Z,97982.16
2022-08-01T23:12:53.415Z,97984.81
2022-08-01T23:14:55.128Z,97989.97
2022-08-01T23:16:56.445Z,97989.13
2022-08-01T23:18:57.738Z,97987.59
2022-08-01T23:20:59.087Z,97994.22
2022-08-01T23:23:00.588Z,97991.66
2022-08-01T23:25:03.898Z,97999.38
2022-08-01T23:27:25.043Z,97990.19
2022-08-01T23:29:46.337Z,97998.72
2022-08-01T23:32:00.457Z,97997.78
2022-08-01T23:34:04.521Z,98000.34
2022-08-01T23:36:05.889Z,97999.56
2022-08-01T23:38:07.227Z,97995.31
2022-08-01T23:40:08.575Z,97992.81
2022-08-01T23:42:10.092Z,98001.38
2022-08-01T23:44:11.709Z,97999.63
2022-08-01T23:46:13.021Z,98002.31
2022-08-01T23:48:14.326Z,98001.53
2022-08-01T23:50:15.637Z,97999.03
2022-08-01T23:52:20.631Z,97998.13
2022-08-01T23:54:22.875Z,98000.72
2022-08-01T23:56:26.819Z,98005.00
2022-08-01T23:58:28.373Z,98003.19
